createdAt,value
2019-02-27T00:01:58.209Z,14.60
2019-02-27T00:04:26.932Z,12.93
2019-02-27T00:06:55.653Z,13.97
2019-02-27T00:09:24.382Z,15.50
2019-02-27T00:11:53.159Z,14.67
2019-02-27T00:14:21.953Z,17.80
2019-02-27T00:16:50.745Z,17.57
2019-02-27T00:19:19.500Z,19.40
2019-02-27T00:21:48.229Z,16.33
2019-02-27T00:24:16.945Z,19.47
2019-02-27T00:26:45.646Z,15.67
2019-02-27T00:29:16.776Z,15.57
2019-02-27T00:31:46.177Z,16.50
2019-02-27T00:34:15.004Z,14.03
2019-02-27T00:36:45.049Z,14.90
2019-02-27T00:39:33.609Z,18.27
2019-02-27T00:42:02.433Z,16.57
2019-02-27T00:44:34.003Z,16.87
2019-02-27T00:47:01.552Z,16.57
2019-02-27T00:49:32.336Z,20.33
2019-02-27T00:52:00.794Z,17.67
2019-02-27T00:54:31.500Z,19.50
2019-02-27T00:57:00.083Z,15.07
2019-02-27T00:59:32.913Z,16.00
2019-02-27T01:01:59.284Z,19.00
2019-02-27T01:04:28.022Z,15.97
2019-02-27T01:06:56.835Z,14.87
2019-02-27T01:09:25.623Z,15.03
2019-02-27T01:11:54.437Z,17.80
2019-02-27T01:14:23.251Z,21.30
2019-02-27T01:16:52.042Z,15.20
2019-02-27T01:19:20.781Z,15.37
2019-02-27T01:21:49.535Z,15.73
2019-02-27T01:24:18.295Z,14.50
2019-02-27T01:26:47.085Z,15.70
2019-02-27T01:29:17.982Z,14.37
2019-02-27T01:31:46.254Z,15.87
2019-02-27T01:34:14.961Z,16.13
2019-02-27T01:36:43.673Z,16.73
2019-02-27T01:39:12.463Z,17.47
2019-02-27T01:41:41.253Z,15.97
2019-02-27T01:44:11.159Z,18.97
2019-02-27T01:46:40.431Z,16.53
2019-02-27T01:49:09.184Z,17.93
2019-02-27T01:51:37.898Z,18.67
2019-02-27T01:54:06.597Z,18.67
2019-02-27T01:56:35.424Z,17.07
2019-02-27T01:59:04.134Z,15.03
2019-02-27T02:01:32.863Z,16.17
2019-02-27T02:04:01.715Z,20.20
2019-02-27T02:06:32.514Z,15.50
2019-02-27T02:09:30.349Z,17.27
2019-02-27T02:11:59.377Z,15.17
2019-02-27T02:15:00.751Z,15.13
2019-02-27T02:18:02.330Z,17.47
2019-02-27T02:21:00.923Z,15.67
2019-02-27T02:23:48.527Z,18.87
2019-02-27T02:26:58.937Z,15.20
2019-02-27T02:29:59.465Z,14.77
2019-02-27T02:32:55.025Z,17.23
2019-02-27T02:35:53.366Z,18.20
2019-02-27T02:38:52.462Z,19.73
2019-02-27T02:42:08.891Z,15.70
2019-02-27T02:45:14.419Z,18.80
2019-02-27T02:48:14.906Z,14.87
2019-02-27T02:51:13.836Z,17.90
2019-02-27T02:54:12.126Z,15.53
2019-02-27T02:57:04.855Z,18.50
2019-02-27T02:59:52.904Z,13.60
2019-02-27T03:02:51.329Z,17.97
2019-02-27T03:05:59.793Z,16.70
2019-02-27T03:08:33.702Z,16.20
2019-02-27T03:11:53.716Z,23.90
2019-02-27T03:15:11.233Z,15.80
2019-02-27T03:18:02.331Z,15.87
2019-02-27T03:20:40.877Z,19.27
2019-02-27T03:23:35.030Z,16.97
2019-02-27T03:26:22.462Z,17.90
2019-02-27T03:29:31.065Z,19.13
2019-02-27T03:32:14.405Z,16.87
2019-02-27T03:35:30.641Z,17.83
2019-02-27T03:38:33.505Z,16.40
2019-02-27T03:41:26.350Z,17.70
2019-02-27T03:44:13.251Z,15.83
2019-02-27T03:47:16.814Z,16.63
2019-02-27T03:50:26.315Z,19.67
2019-02-27T03:53:23.605Z,19.40
2019-02-27T03:56:28.620Z,17.80
2019-02-27T03:59:15.725Z,16.83
2019-02-27T04:02:27.029Z,16.37
2019-02-27T04:05:46.580Z,20.43
2019-02-27T04:08:43.562Z,16.73
2019-02-27T04:11:09.338Z,17.43
2019-02-27T04:13:38.122Z,18.43
2019-02-27T04:16:06.867Z,17.43
2019-02-27T04:18:34.305Z,16.53
2019-02-27T04:21:03.034Z,15.83
2019-02-27T04:23:31.786Z,19.90
2019-02-27T04:26:05.341Z,15.83
2019-02-27T04:28:30.937Z,18.67
2019-02-27T04:30:59.646Z,20.33
2019-02-27T04:33:28.381Z,17.77
2019-02-27T04:35:57.097Z,18.27
2019-02-27T04:38:27.633Z,21.30
2019-02-27T04:40:56.293Z,18.63
2019-02-27T04:43:25.018Z,20.00
2019-02-27T04:45:53.821Z,17.30
2019-02-27T04:48:22.581Z,20.70
2019-02-27T04:50:51.300Z,22.23
2019-02-27T04:53:20.015Z,21.20
2019-02-27T04:55:51.304Z,18.00
2019-02-27T04:58:20.153Z,16.47
2019-02-27T05:00:48.921Z,17.27
2019-02-27T05:03:17.622Z,16.77
2019-02-27T05:05:46.329Z,16.70
2019-02-27T05:08:15.215Z,15.00
2019-02-27T05:10:43.897Z,18.47
2019-02-27T05:13:12.642Z,17.47
2019-02-27T05:15:41.402Z,19.97
2019-02-27T05:18:10.118Z,17.77
2019-02-27T05:20:39.053Z,14.70
2019-02-27T05:23:07.807Z,17.17
2019-02-27T05:25:36.541Z,18.87
2019-02-27T05:28:05.228Z,21.57
2019-02-27T05:30:34.030Z,17.97
2019-02-27T05:33:02.918Z,19.23
2019-02-27T05:35:31.773Z,17.30
2019-02-27T05:38:00.591Z,13.20
2019-02-27T05:40:29.470Z,18.93
2019-02-27T05:42:58.182Z,16.57
2019-02-27T05:45:30.356Z,13.17
2019-02-27T05:47:57.415Z,18.27
2019-02-27T05:50:26.133Z,18.57
2019-02-27T05:52:54.865Z,17.80
2019-02-27T05:55:23.582Z,17.50
2019-02-27T05:57:52.305Z,15.90
2019-02-27T06:00:22.053Z,17.20
2019-02-27T06:02:50.953Z,16.03
2019-02-27T06:05:19.661Z,15.30
2019-02-27T06:07:48.544Z,19.57
2019-02-27T06:10:20.133Z,16.33
2019-02-27T06:12:48.265Z,14.97
2019-02-27T06:15:17.694Z,15.00
2019-02-27T06:17:48.753Z,17.43
2019-02-27T06:20:16.948Z,15.93
2019-02-27T06:22:45.790Z,16.03
2019-02-27T06:25:21.704Z,16.60
2019-02-27T06:27:46.657Z,17.70
2019-02-27T06:30:17.373Z,14.43
2019-02-27T06:32:46.338Z,15.23
2019-02-27T06:35:15.212Z,17.60
2019-02-27T06:37:44.329Z,14.73
2019-02-27T06:40:14.533Z,16.80
2019-02-27T06:42:43.313Z,18.33
2019-02-27T06:45:13.791Z,15.27
2019-02-27T06:47:42.625Z,14.57
2019-02-27T06:50:15.701Z,17.17
2019-02-27T06:52:44.884Z,20.33
2019-02-27T06:55:13.847Z,14.50
2019-02-27T06:57:42.596Z,17.87
2019-02-27T07:00:14.081Z,16.60
2019-02-27T07:02:42.822Z,13.37
2019-02-27T07:05:13.615Z,14.37
2019-02-27T07:07:42.517Z,15.20
2019-02-27T07:10:12.478Z,18.83
2019-02-27T07:12:41.216Z,14.73
2019-02-27T07:15:14.642Z,17.90
2019-02-27T07:17:43.374Z,15.83
2019-02-27T07:20:12.989Z,17.07
2019-02-27T07:22:45.515Z,16.27
2019-02-27T07:25:13.030Z,17.93
2019-02-27T07:27:41.731Z,17.73
2019-02-27T07:30:14.602Z,15.67
2019-02-27T07:32:43.314Z,15.47
2019-02-27T07:35:12.153Z,17.77
2019-02-27T07:37:40.898Z,17.13
2019-02-27T07:40:11.762Z,18.87
2019-02-27T07:42:40.554Z,14.90
2019-02-27T07:45:11.350Z,14.77
2019-02-27T07:47:40.089Z,19.00
2019-02-27T07:50:10.302Z,14.93
2019-02-27T07:52:39.026Z,15.77
2019-02-27T07:55:18.425Z,23.13
2019-02-27T07:57:38.641Z,15.17
2019-02-27T08:00:14.779Z,16.50
2019-02-27T08:02:40.813Z,17.90
2019-02-27T08:05:18.621Z,19.33
2019-02-27T08:07:49.059Z,14.60
2019-02-27T08:10:18.977Z,17.77
2019-02-27T08:12:47.837Z,19.93
2019-02-27T08:15:17.454Z,44.80
2019-02-27T08:17:46.438Z,22.47
2019-02-27T08:20:20.152Z,22.77
2019-02-27T08:22:49.304Z,22.93
2019-02-27T08:25:18.377Z,24.67
2019-02-27T08:27:47.241Z,22.43
2019-02-27T08:30:18.333Z,19.80
2019-02-27T08:32:47.259Z,20.13
2019-02-27T08:35:16.707Z,24.90
2019-02-27T08:37:45.598Z,21.50
2019-02-27T08:40:16.578Z,22.40
2019-02-27T08:42:45.288Z,18.33
2019-02-27T08:45:19.650Z,21.00
2019-02-27T08:47:59.583Z,23.80
2019-02-27T08:50:29.285Z,20.60
2019-02-27T08:52:57.958Z,18.97
2019-02-27T08:55:26.852Z,20.20
2019-02-27T08:57:56.954Z,20.37
2019-02-27T09:00:25.945Z,22.80
2019-02-27T09:02:55.697Z,21.47
2019-02-27T09:05:24.898Z,20.13
2019-02-27T09:07:53.611Z,20.57
2019-02-27T09:10:23.171Z,20.53
2019-02-27T09:12:52.947Z,18.70
2019-02-27T09:15:21.837Z,21.37
2019-02-27T09:17:53.585Z,18.07
2019-02-27T09:20:22.421Z,18.00
2019-02-27T09:22:51.182Z,18.07
2019-02-27T09:25:23.868Z,21.30
2019-02-27T09:27:50.476Z,22.13
2019-02-27T09:30:19.221Z,19.43
2019-02-27T09:32:48.042Z,23.60
2019-02-27T09:35:16.899Z,18.50
2019-02-27T09:37:48.362Z,19.37
2019-02-27T09:40:17.521Z,17.87
2019-02-27T09:42:46.326Z,14.63
2019-02-27T09:45:21.384Z,19.77
2019-02-27T09:47:50.169Z,16.43
2019-02-27T09:50:47.555Z,14.83
2019-02-27T09:53:15.473Z,14.93
2019-02-27T09:55:44.360Z,10.03
2019-02-27T09:58:13.286Z,11.67
2019-02-27T10:00:47.094Z,14.47
2019-02-27T10:03:20.148Z,9.90
2019-02-27T10:05:46.657Z,10.73
2019-02-27T10:08:15.487Z,9.50
2019-02-27T10:10:45.834Z,10.00
2019-02-27T10:13:14.979Z,10.30
2019-02-27T10:15:43.773Z,11.10
2019-02-27T10:18:12.613Z,11.23
2019-02-27T10:20:41.382Z,11.40
2019-02-27T10:23:10.173Z,9.70
2019-02-27T10:25:43.304Z,12.30
2019-02-27T10:28:10.697Z,10.47
2019-02-27T10:30:39.885Z,13.33
2019-02-27T10:33:11.256Z,12.60
2019-02-27T10:35:39.221Z,10.90
2019-02-27T10:38:08.063Z,9.47
2019-02-27T10:40:36.865Z,14.40
2019-02-27T10:43:05.688Z,12.77
2019-02-27T10:45:34.481Z,17.33
2019-02-27T10:48:03.185Z,14.67
2019-02-27T10:50:31.928Z,12.53
2019-02-27T10:53:00.641Z,16.07
2019-02-27T10:55:29.425Z,13.40
2019-02-27T10:57:58.169Z,12.40
2019-02-27T11:00:29.445Z,11.10
2019-02-27T11:02:58.349Z,12.40
2019-02-27T11:05:27.931Z,14.03
2019-02-27T11:07:56.748Z,17.43
2019-02-27T11:10:25.888Z,13.57
2019-02-27T11:12:54.777Z,13.70
2019-02-27T11:15:23.583Z,14.50
2019-02-27T11:17:52.417Z,13.73
2019-02-27T11:20:22.114Z,15.43
2019-02-27T11:22:51.638Z,17.73
2019-02-27T11:25:22.506Z,14.73
2019-02-27T11:27:51.543Z,14.30
2019-02-27T11:30:25.832Z,16.70
2019-02-27T11:32:57.327Z,11.93
2019-02-27T11:35:26.031Z,13.40
2019-02-27T11:37:54.851Z,14.33
2019-02-27T11:40:23.857Z,18.13
2019-02-27T11:42:52.743Z,12.33
2019-02-27T11:45:24.693Z,14.77
2019-02-27T11:47:52.277Z,15.73
2019-02-27T11:50:21.170Z,14.03
2019-02-27T11:52:50.378Z,13.70
2019-02-27T11:55:19.240Z,11.10
2019-02-27T11:57:48.179Z,13.55
2019-02-27T12:00:21.395Z,13.00
2019-02-27T12:02:50.189Z,13.08
2019-02-27T12:05:19.054Z,15.58
2019-02-27T12:07:50.649Z,12.75
2019-02-27T12:10:19.750Z,12.45
2019-02-27T12:12:48.640Z,15.35
2019-02-27T12:15:18.160Z,18.30
2019-02-27T12:17:47.241Z,13.38
2019-02-27T12:20:18.253Z,17.65
2019-02-27T12:22:47.655Z,13.30
2019-02-27T12:25:16.541Z,13.85
2019-02-27T12:27:49.176Z,15.63
2019-02-27T12:30:17.615Z,12.90
2019-02-27T12:32:46.469Z,16.85
2019-02-27T12:35:20.241Z,13.53
2019-02-27T12:37:49.034Z,14.73
2019-02-27T12:40:24.079Z,15.75
2019-02-27T12:42:49.983Z,16.50
2019-02-27T12:45:20.237Z,15.30
2019-02-27T12:47:49.202Z,16.67
2019-02-27T12:50:19.529Z,13.48
2019-02-27T12:52:48.427Z,15.10
2019-02-27T12:55:18.158Z,13.88
2019-02-27T12:57:49.556Z,12.55
2019-02-27T13:00:25.745Z,16.02
2019-02-27T13:02:54.516Z,13.43
2019-02-27T13:05:26.454Z,16.37
2019-02-27T13:07:53.936Z,17.23
2019-02-27T13:10:41.905Z,11.53
2019-02-27T13:13:10.634Z,14.43
2019-02-27T13:15:41.100Z,14.60
2019-02-27T13:18:09.805Z,12.58
2019-02-27T13:20:38.549Z,16.12
2019-02-27T13:23:07.377Z,16.30
2019-02-27T13:25:36.097Z,13.43
2019-02-27T13:28:04.937Z,13.98
2019-02-27T13:30:33.819Z,16.52
2019-02-27T13:33:02.606Z,14.85
2019-02-27T13:35:31.482Z,16.20
2019-02-27T13:38:00.688Z,17.23
2019-02-27T13:40:29.431Z,19.62
2019-02-27T13:42:58.164Z,16.48
2019-02-27T13:45:27.269Z,17.25
2019-02-27T13:47:56.056Z,14.53
2019-02-27T13:50:26.856Z,14.47
2019-02-27T13:52:55.305Z,13.18
2019-02-27T13:55:24.201Z,15.38
2019-02-27T13:57:53.021Z,16.65
2019-02-27T14:00:25.822Z,14.78
2019-02-27T14:02:54.866Z,16.48
2019-02-27T14:05:23.723Z,19.23
2019-02-27T14:07:57.285Z,15.20
2019-02-27T14:10:24.683Z,17.25
2019-02-27T14:12:53.480Z,15.03
2019-02-27T14:15:26.781Z,17.32
2019-02-27T14:17:52.766Z,17.62
2019-02-27T14:20:21.569Z,20.17
2019-02-27T14:22:50.381Z,14.75
2019-02-27T14:25:21.101Z,17.70
2019-02-27T14:27:49.995Z,18.02
2019-02-27T14:30:21.101Z,15.72
2019-02-27T14:32:49.813Z,14.90
2019-02-27T14:35:18.600Z,17.65
2019-02-27T14:37:50.215Z,17.57
2019-02-27T14:40:19.025Z,16.40
2019-02-27T14:42:47.927Z,16.02
2019-02-27T14:45:18.267Z,15.70
2019-02-27T14:47:47.559Z,15.83
2019-02-27T14:50:18.105Z,18.70
2019-02-27T14:52:46.824Z,18.07
2019-02-27T14:55:15.833Z,17.73
2019-02-27T14:57:50.083Z,16.15
2019-02-27T15:00:21.767Z,17.05
2019-02-27T15:02:52.144Z,15.95
2019-02-27T15:05:21.164Z,15.45
2019-02-27T15:07:53.685Z,19.20
2019-02-27T15:10:21.538Z,16.07
2019-02-27T15:12:53.912Z,18.05
2019-02-27T15:15:26.166Z,17.95
2019-02-27T15:17:58.309Z,15.95
2019-02-27T15:20:27.337Z,14.93
2019-02-27T15:22:56.251Z,17.60
2019-02-27T15:25:27.188Z,19.77
2019-02-27T15:27:59.835Z,18.45
2019-02-27T15:30:31.963Z,15.72
2019-02-27T15:33:05.080Z,17.75
2019-02-27T15:35:35.141Z,21.80
2019-02-27T15:38:04.394Z,15.28
2019-02-27T15:40:33.345Z,16.30
2019-02-27T15:43:10.742Z,17.23
2019-02-27T15:45:32.930Z,16.87
2019-02-27T15:48:20.913Z,19.30
2019-02-27T15:50:49.637Z,17.52
2019-02-27T15:53:18.398Z,18.50
2019-02-27T15:55:47.140Z,20.65
2019-02-27T15:58:15.995Z,22.02
2019-02-27T16:00:44.729Z,17.80
2019-02-27T16:03:13.629Z,18.52
2019-02-27T16:05:42.452Z,18.92
2019-02-27T16:08:11.307Z,18.77
2019-02-27T16:10:43.696Z,17.57
2019-02-27T16:13:10.526Z,23.62
2019-02-27T16:15:39.310Z,18.50
2019-02-27T16:18:08.061Z,25.20
2019-02-27T16:20:36.815Z,20.52
2019-02-27T16:23:05.735Z,20.62
2019-02-27T16:25:34.590Z,22.62
2019-02-27T16:28:03.326Z,19.25
2019-02-27T16:30:32.967Z,22.15
2019-02-27T16:33:02.167Z,23.32
2019-02-27T16:35:30.882Z,21.10
2019-02-27T16:37:59.662Z,20.57
2019-02-27T16:40:28.442Z,25.30
2019-02-27T16:42:57.262Z,23.18
2019-02-27T16:45:32.303Z,20.30
2019-02-27T16:47:58.580Z,21.87
2019-02-27T16:50:28.395Z,18.80
2019-02-27T16:52:57.324Z,23.90
2019-02-27T16:55:26.291Z,23.30
2019-02-27T16:57:57.386Z,21.77
2019-02-27T17:00:27.631Z,21.00
2019-02-27T17:03:00.548Z,20.62
2019-02-27T17:05:29.273Z,22.58
2019-02-27T17:08:02.242Z,23.55
2019-02-27T17:10:29.985Z,27.77
2019-02-27T17:12:59.036Z,22.90
2019-02-27T17:15:27.878Z,22.95
2019-02-27T17:17:59.010Z,22.42
2019-02-27T17:20:27.936Z,21.73
2019-02-27T17:22:56.867Z,26.13
2019-02-27T17:25:29.051Z,26.70
2019-02-27T17:27:56.202Z,24.75
2019-02-27T17:30:26.773Z,21.47
2019-02-27T17:32:55.620Z,25.87
2019-02-27T17:35:24.436Z,23.93
2019-02-27T17:37:53.348Z,28.27
2019-02-27T17:40:22.166Z,23.60
2019-02-27T17:42:53.549Z,27.13
2019-02-27T17:45:21.420Z,27.90
2019-02-27T17:47:53.250Z,26.87
2019-02-27T17:50:25.013Z,26.87
2019-02-27T17:52:53.889Z,28.77
2019-02-27T17:55:22.797Z,26.13
2019-02-27T17:57:51.695Z,26.10
2019-02-27T18:00:30.332Z,24.90
2019-02-27T18:02:59.026Z,27.07
2019-02-27T18:05:27.990Z,24.83
2019-02-27T18:07:57.121Z,25.77
2019-02-27T18:10:25.936Z,29.27
2019-02-27T18:12:54.701Z,28.80
2019-02-27T18:15:23.461Z,26.00
2019-02-27T18:17:52.462Z,29.50
2019-02-27T18:20:24.375Z,29.63
2019-02-27T18:22:51.983Z,24.70
2019-02-27T18:25:21.030Z,28.43
2019-02-27T18:27:49.760Z,28.80
2019-02-27T18:30:19.562Z,28.37
2019-02-27T18:32:48.733Z,28.13
2019-02-27T18:35:17.640Z,32.97
2019-02-27T18:37:46.472Z,25.60
2019-02-27T18:40:15.689Z,29.30
2019-02-27T18:42:44.737Z,29.10
2019-02-27T18:45:16.189Z,32.73
2019-02-27T18:47:48.251Z,28.00
2019-02-27T18:50:17.212Z,26.63
2019-02-27T18:52:46.266Z,26.37
2019-02-27T18:55:15.307Z,25.97
2019-02-27T18:57:47.281Z,30.50
2019-02-27T19:00:18.806Z,28.80
2019-02-27T19:02:47.755Z,27.80
2019-02-27T19:05:17.084Z,31.20
2019-02-27T19:07:46.682Z,28.03
2019-02-27T19:10:15.930Z,29.63
2019-02-27T19:12:44.842Z,31.30
2019-02-27T19:15:18.921Z,29.47
2019-02-27T19:17:50.027Z,28.07
2019-02-27T19:20:24.672Z,30.23
2019-02-27T19:22:56.738Z,29.83
2019-02-27T19:25:27.823Z,30.80
2019-02-27T19:27:57.070Z,31.97
2019-02-27T19:30:29.489Z,30.33
2019-02-27T19:33:02.106Z,30.73
2019-02-27T19:35:32.960Z,30.93
2019-02-27T19:38:01.822Z,28.47
2019-02-27T19:40:40.215Z,28.83
2019-02-27T19:43:14.951Z,29.63
2019-02-27T19:45:43.771Z,33.83
2019-02-27T19:48:19.314Z,28.63
2019-02-27T19:50:59.259Z,32.33
2019-02-27T19:53:28.179Z,37.30
2019-02-27T19:56:00.702Z,34.43
2019-02-27T19:58:28.341Z,29.53
2019-02-27T20:00:59.686Z,31.07
2019-02-27T20:03:29.710Z,30.33
2019-02-27T20:05:59.065Z,34.33
2019-02-27T20:08:27.818Z,32.77
2019-02-27T20:10:58.518Z,29.63
2019-02-27T20:13:28.066Z,31.40
2019-02-27T20:15:57.781Z,31.17
2019-02-27T20:18:30.063Z,34.63
2019-02-27T20:21:01.229Z,33.63
2019-02-27T20:23:30.081Z,32.97
2019-02-27T20:26:04.022Z,36.87
2019-02-27T20:28:35.004Z,31.90
2019-02-27T20:31:03.532Z,36.77
2019-02-27T20:33:37.326Z,33.57
2019-02-27T20:36:05.701Z,37.73
2019-02-27T20:38:34.929Z,35.50
2019-02-27T20:41:05.837Z,36.20
2019-02-27T20:43:37.250Z,34.23
2019-02-27T20:46:06.080Z,35.63
2019-02-27T20:48:39.495Z,39.37
2019-02-27T20:51:07.863Z,33.00
2019-02-27T20:53:36.868Z,32.37
2019-02-27T20:56:05.812Z,37.00
2019-02-27T20:58:37.959Z,41.30
2019-02-27T21:01:13.920Z,37.07
2019-02-27T21:03:44.406Z,36.53
2019-02-27T21:06:15.415Z,36.87
2019-02-27T21:08:44.435Z,36.03
2019-02-27T21:11:17.366Z,40.37
2019-02-27T21:13:50.800Z,42.03
2019-02-27T21:16:22.281Z,43.07
2019-02-27T21:18:52.361Z,44.77
2019-02-27T21:21:23.217Z,38.77
2019-02-27T21:23:53.291Z,38.10
2019-02-27T21:26:37.762Z,37.87
2019-02-27T21:29:08.837Z,32.53
2019-02-27T21:31:40.997Z,41.53
2019-02-27T21:34:09.773Z,35.00
2019-02-27T21:36:38.753Z,33.33
2019-02-27T21:39:07.546Z,37.67
2019-02-27T21:41:36.317Z,39.50
2019-02-27T21:44:05.247Z,35.30
2019-02-27T21:46:33.971Z,35.90
2019-02-27T21:49:02.747Z,36.23
2019-02-27T21:51:31.481Z,40.90
2019-02-27T21:54:03.492Z,38.27
2019-02-27T21:56:30.717Z,40.80
2019-02-27T21:58:59.477Z,37.77
2019-02-27T22:01:28.471Z,39.90
2019-02-27T22:03:57.251Z,40.53
2019-02-27T22:06:28.057Z,40.00
2019-02-27T22:08:56.979Z,45.07
2019-02-27T22:11:27.108Z,50.17
2019-02-27T22:13:56.957Z,40.93
2019-02-27T22:16:29.617Z,41.87
2019-02-27T22:18:56.427Z,40.43
2019-02-27T22:21:25.165Z,39.10
2019-02-27T22:23:54.038Z,40.70
2019-02-27T22:26:22.769Z,39.83
2019-02-27T22:28:54.422Z,39.10
2019-02-27T22:31:22.057Z,40.03
2019-02-27T22:33:53.126Z,39.60
2019-02-27T22:36:21.411Z,37.87
2019-02-27T22:39:00.173Z,39.57
2019-02-27T22:41:29.606Z,41.53
2019-02-27T22:43:58.361Z,40.03
2019-02-27T22:46:28.750Z,40.83
2019-02-27T22:49:01.210Z,37.67
2019-02-27T22:51:30.029Z,39.70
2019-02-27T22:53:59.450Z,37.83
2019-02-27T22:56:32.331Z,39.13
2019-02-27T22:59:03.012Z,36.67
2019-02-27T23:02:03.245Z,42.00
2019-02-27T23:04:34.257Z,36.60
2019-02-27T23:07:03.102Z,35.57
2019-02-27T23:09:32.254Z,43.67
2019-02-27T23:12:01.231Z,37.93
2019-02-27T23:14:32.405Z,36.03
2019-02-27T23:17:01.341Z,35.43
2019-02-27T23:19:30.165Z,39.70
2019-02-27T23:21:58.957Z,39.73
2019-02-27T23:24:27.677Z,38.23
2019-02-27T23:26:56.410Z,42.17
2019-02-27T23:29:28.631Z,38.73
2019-02-27T23:31:57.433Z,36.13
2019-02-27T23:34:26.170Z,37.10
2019-02-27T23:36:55.956Z,40.40
2019-02-27T23:39:25.358Z,41.83
2019-02-27T23:41:56.514Z,35.67
2019-02-27T23:44:24.547Z,40.17
2019-02-27T23:46:57.109Z,34.90
2019-02-27T23:49:23.817Z,37.53
2019-02-27T23:51:52.609Z,41.53
2019-02-27T23:54:21.357Z,36.83
2019-02-27T23:56:51.781Z,37.27
2019-02-27T23:59:20.767Z,41.10
